Pimenteiras, Brazil
Current Conditions -  °F | °C
As of 8:00 PM on Friday 28 Nov 2014 (Local Time) from SBTE Reporting Station
Few Clouds Few Clouds  
Wind Chill: 90°   Ceiling: Unl
Heat Index: 91°   Visibility: 6mi
Dew Point: 64°   Wind: 2mph
Humidity: 43%   Direction: 340°NNW
Pressure: 29.8"   Gusts: NA
Location:  6.25°S, 41.42°W
Report Text: SBTE 282300Z 34002KT 9999 FEW030 32/18 Q1009
Loading
Personal Weather Stations






























Interactive Weather Map New forecast layout! Learn more

10-Day Weather Forecast

Advertisements
Track Severe Weather on mobile